createdAt,value
2023-02-11T00:03:06.682Z,-31.39
2023-02-11T00:08:10.534Z,-31.45
2023-02-11T00:13:14.637Z,-31.51
2023-02-11T00:18:18.539Z,-31.51
2023-02-11T00:23:22.333Z,-31.44
2023-02-11T00:28:27.855Z,-31.37
2023-02-11T00:33:31.675Z,-31.30
2023-02-11T00:38:35.861Z,-31.25
2023-02-11T00:43:39.972Z,-31.41
2023-02-11T00:48:44.594Z,-31.39
2023-02-11T00:53:48.408Z,-31.48
2023-02-11T00:58:53.551Z,-31.52
2023-02-11T01:03:57.542Z,-32.07
2023-02-11T01:09:01.312Z,-31.69
2023-02-11T01:14:05.286Z,-31.77
2023-02-11T01:19:09.228Z,-31.85
2023-02-11T01:24:13.499Z,-32.00
2023-02-11T01:29:20.021Z,-32.24
2023-02-11T01:34:23.850Z,-32.23
2023-02-11T01:39:28.542Z,-32.18
2023-02-11T01:44:38.994Z,-32.14
2023-02-11T01:49:52.203Z,-32.16
2023-02-11T01:55:31.549Z,-32.24
2023-02-11T02:00:39.765Z,-32.20
2023-02-11T02:05:53.094Z,-32.24
2023-02-11T02:10:59.177Z,-32.24
2023-02-11T02:16:10.031Z,-32.20
2023-02-11T02:21:38.301Z,-32.16
2023-02-11T02:27:13.739Z,-32.09
2023-02-11T02:32:29.478Z,-31.85
2023-02-11T02:37:38.602Z,-31.64
2023-02-11T02:42:44.966Z,-31.36
2023-02-11T02:47:48.755Z,-31.18
2023-02-11T02:53:13.356Z,-30.87
2023-02-11T02:58:49.055Z,-30.61
2023-02-11T03:04:20.981Z,-30.39
2023-02-11T03:09:32.006Z,-30.19
2023-02-11T03:14:37.639Z,-29.99
2023-02-11T03:19:47.128Z,-29.70
2023-02-11T03:24:51.010Z,-29.30
2023-02-11T03:30:12.556Z,-28.97
2023-02-11T03:35:25.567Z,-28.67
2023-02-11T03:40:42.321Z,-28.37
2023-02-11T03:45:50.203Z,-28.04
2023-02-11T03:50:57.555Z,-27.71
2023-02-11T03:56:06.435Z,-27.43
2023-02-11T04:01:10.554Z,-27.20
2023-02-11T04:06:14.431Z,-27.18
2023-02-11T04:11:18.202Z,-26.66
2023-02-11T04:16:22.316Z,-26.47
2023-02-11T04:21:26.269Z,-26.27
2023-02-11T04:26:30.081Z,-25.83
2023-02-11T04:31:34.150Z,-25.58
2023-02-11T04:36:38.041Z,-25.32
2023-02-11T04:41:41.741Z,-25.07
2023-02-11T04:46:45.827Z,-24.98
2023-02-11T04:51:49.784Z,-24.58
2023-02-11T04:56:53.677Z,-24.36
2023-02-11T05:01:57.809Z,-24.07
2023-02-11T05:07:01.573Z,-23.94
2023-02-11T05:12:05.686Z,-23.46
2023-02-11T05:17:09.508Z,-23.30
2023-02-11T05:22:13.315Z,-23.02
2023-02-11T05:27:17.167Z,-22.83
2023-02-11T05:32:20.861Z,-23.05
2023-02-11T05:37:24.933Z,-22.38
2023-02-11T05:42:28.682Z,-22.17
2023-02-11T05:47:33.902Z,-22.04
2023-02-11T05:52:37.978Z,-21.68
2023-02-11T05:57:41.901Z,-21.48
2023-02-11T06:02:45.989Z,-21.28
2023-02-11T06:07:49.857Z,-21.15
2023-02-11T06:12:53.980Z,-20.99
2023-02-11T06:17:58.265Z,-20.65
2023-02-11T06:23:01.980Z,-20.47
2023-02-11T06:28:06.026Z,-20.34
2023-02-11T06:33:09.851Z,-20.19
2023-02-11T06:38:14.684Z,-20.08
2023-02-11T06:43:18.615Z,-20.00
2023-02-11T06:48:23.173Z,-20.13
2023-02-11T06:53:27.263Z,-19.70
2023-02-11T06:58:31.121Z,-19.51
2023-02-11T07:03:40.490Z,-19.39
2023-02-11T07:08:46.633Z,-19.22
2023-02-11T07:13:50.947Z,-19.10
2023-02-11T07:18:55.079Z,-18.96
2023-02-11T07:23:58.813Z,-18.82
2023-02-11T07:29:04.033Z,-18.72
2023-02-11T07:34:07.864Z,-18.88
2023-02-11T07:39:11.884Z,-18.56
2023-02-11T07:44:16.186Z,-18.48
2023-02-11T07:49:20.056Z,-18.84
2023-02-11T07:54:24.111Z,-18.25
2023-02-11T07:59:28.996Z,-18.12
2023-02-11T08:04:32.919Z,-18.42
2023-02-11T08:09:36.917Z,-17.91
2023-02-11T08:14:40.658Z,-17.84
2023-02-11T08:19:44.585Z,-18.18
2023-02-11T08:24:50.153Z,-17.67
2023-02-11T08:29:56.908Z,-17.61
2023-02-11T08:35:00.693Z,-17.64
2023-02-11T08:40:06.934Z,-17.52
2023-02-11T08:45:11.178Z,-17.49
2023-02-11T08:50:15.834Z,-18.00
2023-02-11T08:55:19.690Z,-17.49
2023-02-11T09:00:24.467Z,-17.50
2023-02-11T09:05:28.774Z,-17.49
2023-02-11T09:10:32.590Z,-17.46
2023-02-11T09:22:05.783Z,-17.35
2023-02-11T09:27:09.598Z,-17.29
2023-02-11T09:32:14.445Z,-17.26
2023-02-11T09:37:19.916Z,-17.67
2023-02-11T09:42:38.486Z,-17.18
2023-02-11T09:47:50.239Z,-17.20
2023-02-11T09:53:22.031Z,-17.21
2023-02-11T09:58:32.987Z,-17.21
2023-02-11T10:04:20.895Z,-17.14
2023-02-11T10:09:55.547Z,-17.15
2023-02-11T10:15:14.808Z,-17.26
2023-02-11T10:20:37.890Z,-17.39
2023-02-11T10:25:45.888Z,-17.53
2023-02-11T10:31:01.786Z,-17.62
2023-02-11T10:36:06.527Z,-17.71
2023-02-11T10:41:19.658Z,-17.76
2023-02-11T10:46:34.100Z,-17.84
2023-02-11T10:51:38.425Z,-18.02
2023-02-11T10:56:47.733Z,-18.17
2023-02-11T11:01:53.018Z,-18.37
2023-02-11T11:07:28.359Z,-18.55
2023-02-11T11:12:48.227Z,-18.69
2023-02-11T11:18:20.959Z,-18.89
2023-02-11T11:23:27.120Z,-19.09
2023-02-11T11:28:39.413Z,-19.35
2023-02-11T11:33:45.447Z,-19.49
2023-02-11T11:38:59.637Z,-19.67
2023-02-11T11:44:40.842Z,-19.86
2023-02-11T11:50:10.645Z,-20.02
2023-02-11T11:55:18.371Z,-20.19
2023-02-11T12:00:28.813Z,-20.44
2023-02-11T12:05:55.271Z,-20.50
2023-02-11T12:11:04.525Z,-20.67
2023-02-11T12:16:20.876Z,-20.78
2023-02-11T12:21:39.827Z,-20.95
2023-02-11T12:27:04.164Z,-21.32
2023-02-11T12:32:11.299Z,-21.56
2023-02-11T12:37:31.341Z,-21.87
2023-02-11T12:43:15.204Z,-22.05
2023-02-11T12:48:51.776Z,-22.15
2023-02-11T12:54:32.413Z,-22.39
2023-02-11T13:00:01.744Z,-22.65
2023-02-11T13:05:14.440Z,-22.95
2023-02-11T13:10:33.778Z,-23.07
2023-02-11T13:15:39.467Z,-23.01
2023-02-11T13:20:46.261Z,-23.23
2023-02-11T13:26:00.977Z,-23.38
2023-02-11T13:31:08.350Z,-23.46
2023-02-11T13:36:16.860Z,-23.61
2023-02-11T13:41:28.910Z,-23.67
2023-02-11T13:47:05.838Z,-23.79
2023-02-11T13:52:39.874Z,-23.86
2023-02-11T13:57:43.993Z,-23.79
2023-02-11T14:03:31.923Z,-23.89
2023-02-11T14:08:54.518Z,-23.90
2023-02-11T14:14:17.390Z,-24.49
2023-02-11T14:19:36.709Z,-24.50
2023-02-11T14:24:49.278Z,-24.43
2023-02-11T14:30:04.771Z,-24.54
2023-02-11T14:35:36.374Z,-24.52
2023-02-11T14:40:57.376Z,-24.67
2023-02-11T14:46:03.724Z,-25.25
2023-02-11T14:51:16.577Z,-25.10
2023-02-11T14:56:28.106Z,-24.98
2023-02-11T15:01:41.221Z,-25.06
2023-02-11T15:06:52.311Z,-25.18
2023-02-11T15:11:58.702Z,-25.37
2023-02-11T15:17:45.702Z,-25.45
2023-02-11T15:22:54.970Z,-25.52
2023-02-11T15:27:59.897Z,-25.26
2023-02-11T15:33:06.770Z,-25.30
2023-02-11T15:38:13.617Z,-25.44
2023-02-11T15:43:17.617Z,-25.61
2023-02-11T15:48:33.437Z,-26.16
2023-02-11T15:53:44.058Z,-25.85
2023-02-11T15:58:50.305Z,-25.96
2023-02-11T16:03:54.355Z,-25.97
2023-02-11T16:09:11.737Z,-25.97
2023-02-11T16:14:31.451Z,-25.93
2023-02-11T16:19:37.873Z,-25.99
2023-02-11T16:24:41.959Z,-26.22
2023-02-11T16:29:49.854Z,-26.26
2023-02-11T16:34:58.674Z,-26.10
2023-02-11T16:40:02.532Z,-26.04
2023-02-11T16:45:08.870Z,-26.14
2023-02-11T16:50:22.927Z,-26.35
2023-02-11T16:55:26.751Z,-26.41
2023-02-11T17:00:30.593Z,-26.45
2023-02-11T17:05:49.349Z,-26.40
2023-02-11T17:10:58.709Z,-26.37
2023-02-11T17:16:02.560Z,-26.56
2023-02-11T17:21:08.276Z,-26.64
2023-02-11T17:26:12.058Z,-26.73
2023-02-11T17:31:16.478Z,-26.80
2023-02-11T17:36:20.283Z,-27.07
2023-02-11T17:41:24.938Z,-27.15
2023-02-11T17:46:29.626Z,-27.10
2023-02-11T17:51:37.351Z,-27.07
2023-02-11T17:56:41.889Z,-27.31
2023-02-11T18:01:45.862Z,-27.28
2023-02-11T18:06:50.809Z,-27.29
2023-02-11T18:11:55.808Z,-27.32
2023-02-11T18:16:59.578Z,-27.46
2023-02-11T18:22:05.356Z,-27.31
2023-02-11T18:27:10.926Z,-27.76
2023-02-11T18:32:15.408Z,-27.42
2023-02-11T18:37:19.289Z,-27.53
2023-02-11T18:42:23.038Z,-27.35
2023-02-11T18:47:27.344Z,-27.15
2023-02-11T18:52:32.098Z,-27.14
2023-02-11T18:57:35.644Z,-27.03
2023-02-11T19:02:39.527Z,-27.04
2023-02-11T19:07:43.380Z,-27.07
2023-02-11T19:12:47.120Z,-27.16
2023-02-11T19:17:50.937Z,-27.23
2023-02-11T19:22:54.955Z,-27.27
2023-02-11T19:27:58.972Z,-27.32
2023-02-11T19:33:02.876Z,-27.25
2023-02-11T19:38:07.027Z,-27.88
2023-02-11T19:43:10.747Z,-27.42
2023-02-11T19:48:14.634Z,-27.48
2023-02-11T19:53:18.652Z,-27.60
2023-02-11T19:58:22.345Z,-27.61
2023-02-11T20:03:26.166Z,-27.68
2023-02-11T20:08:30.038Z,-27.75
2023-02-11T20:13:35.894Z,-27.87
2023-02-11T20:18:41.073Z,-27.93
2023-02-11T20:23:47.150Z,-27.96
2023-02-11T20:28:52.448Z,-28.01
2023-02-11T20:33:58.204Z,-28.01
2023-02-11T20:39:03.639Z,-28.08
2023-02-11T20:44:09.510Z,-28.13
2023-02-11T20:49:15.299Z,-28.13
2023-02-11T20:54:21.030Z,-28.06
2023-02-11T20:59:25.766Z,-28.04
2023-02-11T21:04:31.535Z,-28.03
2023-02-11T21:09:35.563Z,-28.58
2023-02-11T21:14:39.603Z,-28.13
2023-02-11T21:19:44.441Z,-28.17
2023-02-11T21:24:48.459Z,-28.28
2023-02-11T21:29:54.662Z,-28.89
2023-02-11T21:35:01.858Z,-28.34
2023-02-11T21:40:08.020Z,-28.44
2023-02-11T21:45:11.727Z,-28.27
2023-02-11T21:50:15.928Z,-28.30
2023-02-11T21:55:20.007Z,-28.40
2023-02-11T22:00:23.915Z,-28.35
2023-02-11T22:05:27.914Z,-28.37
2023-02-11T22:10:31.736Z,-28.39
2023-02-11T22:15:36.586Z,-28.49
2023-02-11T22:20:40.404Z,-28.48
2023-02-11T22:25:44.406Z,-28.42
2023-02-11T22:30:55.925Z,-28.41
2023-02-11T22:36:02.861Z,-28.52
2023-02-11T22:41:09.279Z,-28.57
2023-02-11T22:46:16.850Z,-28.60
2023-02-11T22:51:24.385Z,-28.60
2023-02-11T22:56:31.055Z,-28.57
2023-02-11T23:01:35.373Z,-28.61
2023-02-11T23:06:38.981Z,-28.62
2023-02-11T23:11:42.844Z,-29.11
2023-02-11T23:16:46.810Z,-28.63
2023-02-11T23:21:53.197Z,-28.73
2023-02-11T23:26:57.286Z,-28.87
2023-02-11T23:32:01.774Z,-28.72
2023-02-11T23:37:06.014Z,-28.66
2023-02-11T23:42:09.813Z,-28.72
2023-02-11T23:47:13.429Z,-28.79
2023-02-11T23:52:17.365Z,-28.87
2023-02-11T23:57:21.140Z,-28.91
